createdAt,value
2019-02-10T00:00:53.905Z,32.13
2019-02-10T00:03:22.506Z,30.93
2019-02-10T00:05:51.029Z,30.13
2019-02-10T00:08:20.352Z,31.30
2019-02-10T00:10:49.690Z,30.60
2019-02-10T00:13:38.382Z,29.23
2019-02-10T00:16:10.355Z,28.10
2019-02-10T00:18:38.856Z,29.23
2019-02-10T00:21:07.371Z,26.60
2019-02-10T00:23:36.682Z,28.30
2019-02-10T00:26:06.021Z,27.77
2019-02-10T00:28:34.545Z,27.57
2019-02-10T00:31:03.896Z,28.40
2019-02-10T00:33:33.208Z,29.00
2019-02-10T00:36:02.514Z,26.27
2019-02-10T00:38:31.834Z,25.37
2019-02-10T00:41:01.181Z,23.80
2019-02-10T00:43:30.488Z,23.80
2019-02-10T00:45:59.791Z,22.77
2019-02-10T00:48:29.146Z,21.97
2019-02-10T00:50:58.690Z,23.33
2019-02-10T00:53:27.098Z,26.27
2019-02-10T00:55:55.623Z,26.83
2019-02-10T00:58:24.126Z,27.23
2019-02-10T01:00:53.646Z,26.30
2019-02-10T01:06:01.527Z,25.60
2019-02-10T01:08:30.130Z,25.87
2019-02-10T01:10:59.432Z,26.13
2019-02-10T01:13:28.071Z,23.70
2019-02-10T01:15:57.384Z,24.73
2019-02-10T01:21:28.525Z,23.83
2019-02-10T01:23:57.930Z,27.17
2019-02-10T01:26:26.436Z,26.70
2019-02-10T01:28:55.791Z,26.83
2019-02-10T01:34:07.787Z,26.50
2019-02-10T01:36:36.292Z,24.40
2019-02-10T01:39:12.042Z,25.40
2019-02-10T01:41:40.671Z,24.60
2019-02-10T01:44:09.197Z,23.27
2019-02-10T01:46:37.704Z,21.83
2019-02-10T01:49:07.019Z,20.97
2019-02-10T01:51:36.324Z,21.07
2019-02-10T01:54:05.695Z,21.87
2019-02-10T01:56:35.167Z,22.07
2019-02-10T02:02:07.233Z,22.07
2019-02-10T02:04:36.540Z,22.93
2019-02-10T02:07:05.053Z,24.17
2019-02-10T02:09:34.416Z,22.30
2019-02-10T02:14:58.405Z,24.40
2019-02-10T02:17:27.713Z,26.03
2019-02-10T02:19:57.013Z,25.77
2019-02-10T02:25:28.595Z,27.40
2019-02-10T02:27:57.928Z,26.70
2019-02-10T02:30:27.245Z,27.20
2019-02-10T02:32:56.549Z,26.80
2019-02-10T02:35:25.864Z,26.33
2019-02-10T02:37:55.170Z,27.47
2019-02-10T02:40:24.479Z,25.83
2019-02-10T02:42:53.775Z,25.93
2019-02-10T02:45:22.299Z,24.50
2019-02-10T02:47:51.615Z,26.53
2019-02-10T02:50:20.931Z,25.37
2019-02-10T02:52:50.238Z,26.40
2019-02-10T02:55:19.557Z,30.03
2019-02-10T02:57:48.851Z,30.13
2019-02-10T03:00:18.175Z,30.33
2019-02-10T03:02:47.535Z,34.43
2019-02-10T03:05:16.867Z,37.60
2019-02-10T03:07:45.454Z,37.70
2019-02-10T03:13:16.110Z,37.50
2019-02-10T03:18:53.060Z,38.67
2019-02-10T03:21:16.940Z,39.07
2019-02-10T03:26:48.195Z,39.50
2019-02-10T03:29:16.712Z,38.93
2019-02-10T03:34:47.451Z,27.07
2019-02-10T03:37:15.949Z,27.80
2019-02-10T03:42:46.686Z,30.30
2019-02-10T03:48:17.909Z,29.30
2019-02-10T03:53:49.290Z,25.53
2019-02-10T03:56:17.699Z,24.77
2019-02-10T03:58:47.012Z,25.03
2019-02-10T04:01:16.345Z,23.03
2019-02-10T04:03:45.715Z,22.23
2019-02-10T04:06:14.989Z,23.20
2019-02-10T04:08:44.288Z,23.70
2019-02-10T04:11:13.601Z,25.20
2019-02-10T04:13:42.926Z,23.63
2019-02-10T04:16:12.238Z,24.17
2019-02-10T04:18:40.745Z,24.83
2019-02-10T04:24:11.963Z,27.53
2019-02-10T04:26:40.469Z,27.13
2019-02-10T04:32:11.348Z,25.73
2019-02-10T04:37:45.975Z,22.83
2019-02-10T04:40:31.810Z,21.97
2019-02-10T04:46:03.047Z,24.47
2019-02-10T04:48:31.676Z,25.20
2019-02-10T04:54:02.494Z,27.80
2019-02-10T04:59:33.734Z,29.00
2019-02-10T05:02:03.155Z,29.17
2019-02-10T05:07:34.144Z,26.67
2019-02-10T05:10:04.091Z,29.33
2019-02-10T05:12:32.700Z,30.33
2019-02-10T05:18:04.064Z,31.47
2019-02-10T05:23:34.945Z,26.63
2019-02-10T05:26:04.266Z,27.60
2019-02-10T05:31:16.010Z,33.93
2019-02-10T05:33:45.332Z,29.43
2019-02-10T05:39:16.201Z,26.17
2019-02-10T05:41:45.498Z,25.37
2019-02-10T05:44:14.143Z,26.73
2019-02-10T05:52:27.462Z,26.33
2019-02-10T05:54:56.815Z,26.10
2019-02-10T05:57:26.121Z,26.13
2019-02-10T05:59:55.429Z,26.00
2019-02-10T06:02:33.393Z,26.67
2019-02-10T06:05:23.870Z,27.37
2019-02-10T06:07:53.196Z,30.40
2019-02-10T06:10:22.499Z,25.93
2019-02-10T06:12:51.881Z,26.23
2019-02-10T06:15:21.198Z,26.73
2019-02-10T06:17:50.506Z,28.63
2019-02-10T06:20:19.822Z,27.13
2019-02-10T06:22:49.142Z,28.63
2019-02-10T06:25:17.659Z,26.37
2019-02-10T06:27:46.964Z,25.50
2019-02-10T06:30:16.281Z,26.13
2019-02-10T06:32:45.598Z,26.67
2019-02-10T06:35:14.911Z,26.97
2019-02-10T06:37:44.219Z,28.97
2019-02-10T06:40:13.522Z,27.90
2019-02-10T06:45:44.975Z,29.30
2019-02-10T06:48:14.286Z,35.13
2019-02-10T06:50:43.685Z,33.40
2019-02-10T06:53:12.998Z,31.77
2019-02-10T06:55:42.304Z,30.43
2019-02-10T06:58:10.724Z,35.23
2019-02-10T07:04:07.683Z,32.10
2019-02-10T07:06:37.129Z,31.10
2019-02-10T07:09:06.540Z,30.33
2019-02-10T07:17:45.291Z,33.57
2019-02-10T07:20:53.336Z,34.37
2019-02-10T07:24:00.686Z,37.93
2019-02-10T07:30:20.207Z,39.27
2019-02-10T07:32:49.738Z,36.70
2019-02-10T07:35:56.991Z,37.07
2019-02-10T07:38:49.711Z,37.90
2019-02-10T07:41:56.857Z,36.63
2019-02-10T07:44:48.373Z,33.23
2019-02-10T07:47:56.471Z,30.27
2019-02-10T07:50:52.151Z,30.93
2019-02-10T07:53:59.289Z,30.23
2019-02-10T07:56:59.559Z,28.93
2019-02-10T08:00:07.594Z,30.97
2019-02-10T08:03:14.830Z,35.07
2019-02-10T08:06:15.440Z,31.93
2019-02-10T08:09:08.675Z,30.93
2019-02-10T08:12:03.130Z,30.10
2019-02-10T08:15:11.231Z,31.03
2019-02-10T08:18:07.564Z,25.97
2019-02-10T08:21:07.424Z,26.10
2019-02-10T08:24:14.771Z,26.97
2019-02-10T08:27:22.024Z,33.83
2019-02-10T08:30:29.287Z,25.90
2019-02-10T08:33:36.527Z,26.07
2019-02-10T08:36:43.764Z,24.87
2019-02-10T08:39:53.129Z,25.53
2019-02-10T08:42:43.596Z,24.17
2019-02-10T08:45:51.693Z,26.83
2019-02-10T08:48:59.719Z,26.23
2019-02-10T08:52:07.026Z,29.30
2019-02-10T08:54:35.530Z,28.70
2019-02-10T08:57:04.863Z,27.23
2019-02-10T08:59:34.178Z,27.80
2019-02-10T09:02:03.499Z,32.93
2019-02-10T09:04:32.817Z,30.13
2019-02-10T09:07:01.321Z,29.63
2019-02-10T09:09:29.878Z,30.70
2019-02-10T09:12:07.327Z,28.70
2019-02-10T09:14:35.806Z,25.60
2019-02-10T09:17:05.114Z,26.70
2019-02-10T09:19:34.500Z,23.67
2019-02-10T09:22:03.933Z,25.17
2019-02-10T09:24:32.438Z,23.77
2019-02-10T09:27:01.751Z,23.43
2019-02-10T09:29:30.358Z,23.40
2019-02-10T09:31:58.768Z,21.57
2019-02-10T09:34:28.093Z,22.30
2019-02-10T09:36:57.425Z,23.60
2019-02-10T09:39:26.750Z,22.13
2019-02-10T09:41:56.051Z,21.40
2019-02-10T09:44:25.370Z,20.97
2019-02-10T09:46:54.706Z,21.20
2019-02-10T09:49:24.016Z,19.77
2019-02-10T09:51:52.423Z,22.67
2019-02-10T09:54:20.952Z,22.70
2019-02-10T09:56:50.275Z,21.23
2019-02-10T09:59:19.572Z,20.47
2019-02-10T10:01:48.895Z,21.27
2019-02-10T10:04:18.206Z,19.13
2019-02-10T10:06:47.602Z,18.37
2019-02-10T10:09:19.291Z,19.90
2019-02-10T10:12:06.115Z,17.83
2019-02-10T10:14:35.421Z,17.53
2019-02-10T10:17:03.936Z,18.83
2019-02-10T10:19:33.268Z,19.13
2019-02-10T10:22:01.686Z,18.37
2019-02-10T10:24:30.999Z,17.37
2019-02-10T10:27:00.323Z,17.80
2019-02-10T10:29:29.662Z,17.90
2019-02-10T10:31:58.061Z,17.60
2019-02-10T10:34:26.582Z,18.63
2019-02-10T10:36:55.885Z,18.63
2019-02-10T10:39:27.505Z,17.80
2019-02-10T10:41:54.806Z,18.73
2019-02-10T10:44:23.352Z,18.00
2019-02-10T10:46:52.670Z,18.30
2019-02-10T10:49:21.991Z,19.33
2019-02-10T10:51:51.328Z,18.47
2019-02-10T10:54:20.650Z,17.40
2019-02-10T10:56:49.954Z,17.00
2019-02-10T11:02:02.645Z,17.83
2019-02-10T11:04:31.956Z,18.17
2019-02-10T11:07:01.270Z,16.50
2019-02-10T11:09:35.548Z,16.00
2019-02-10T11:12:19.893Z,17.47
2019-02-10T11:14:48.406Z,16.73
2019-02-10T11:17:17.730Z,15.37
2019-02-10T11:19:46.257Z,18.90
2019-02-10T11:22:15.598Z,17.73
2019-02-10T11:24:45.008Z,19.60
2019-02-10T11:27:14.327Z,18.43
2019-02-10T11:29:43.660Z,17.50
2019-02-10T11:32:12.176Z,15.93
2019-02-10T11:34:46.169Z,15.63
2019-02-10T11:37:31.190Z,16.47
2019-02-10T11:39:59.732Z,15.30
2019-02-10T11:42:28.142Z,15.13
2019-02-10T11:44:57.457Z,14.97
2019-02-10T11:47:26.762Z,15.07
2019-02-10T11:49:56.081Z,14.77
2019-02-10T11:52:25.399Z,15.10
2019-02-10T11:54:54.721Z,14.93
2019-02-10T11:57:23.228Z,13.60
2019-02-10T11:59:51.734Z,13.90
2019-02-10T12:02:20.649Z,14.37
2019-02-10T12:04:49.167Z,14.40
2019-02-10T12:07:18.490Z,15.40
2019-02-10T12:09:51.695Z,14.30
2019-02-10T12:12:37.137Z,15.73
2019-02-10T12:15:07.375Z,14.63
2019-02-10T12:17:36.008Z,15.73
2019-02-10T12:20:05.527Z,16.33
2019-02-10T12:22:34.845Z,13.73
2019-02-10T12:25:04.770Z,16.27
2019-02-10T12:30:35.166Z,15.47
2019-02-10T12:33:03.690Z,15.30
2019-02-10T12:35:33.015Z,14.27
2019-02-10T12:38:02.341Z,14.40
2019-02-10T12:40:30.865Z,15.37
2019-02-10T12:43:00.185Z,14.20
2019-02-10T12:45:29.502Z,14.97
2019-02-10T12:47:58.834Z,15.77
2019-02-10T12:53:29.434Z,14.10
2019-02-10T12:55:58.756Z,14.20
2019-02-10T12:58:28.161Z,14.50
2019-02-10T13:00:57.483Z,13.97
2019-02-10T13:03:26.912Z,14.97
2019-02-10T13:05:56.244Z,14.70
2019-02-10T13:08:45.948Z,14.07
2019-02-10T13:11:15.267Z,13.53
2019-02-10T13:16:46.667Z,13.27
2019-02-10T13:19:15.208Z,13.70
2019-02-10T13:21:44.523Z,13.57
2019-02-10T13:24:13.843Z,13.43
2019-02-10T13:26:43.165Z,12.67
2019-02-10T13:29:12.848Z,12.63
2019-02-10T13:32:01.716Z,13.37
2019-02-10T13:34:31.031Z,12.37
2019-02-10T13:36:59.582Z,12.63
2019-02-10T13:39:28.090Z,13.67
2019-02-10T13:41:55.518Z,14.43
2019-02-10T13:44:24.834Z,13.17
2019-02-10T13:46:54.161Z,14.50
2019-02-10T13:49:22.678Z,13.83
2019-02-10T13:51:52.000Z,13.83
2019-02-10T13:54:21.318Z,14.53
2019-02-10T13:56:50.643Z,15.03
2019-02-10T13:59:19.060Z,15.07
2019-02-10T14:01:48.401Z,12.60
2019-02-10T14:04:17.823Z,12.43
2019-02-10T14:06:47.146Z,13.03
2019-02-10T14:09:16.526Z,15.60
2019-02-10T14:11:45.803Z,13.80
2019-02-10T14:14:15.126Z,14.00
2019-02-10T14:16:44.481Z,15.37
2019-02-10T14:19:13.789Z,14.90
2019-02-10T14:21:43.120Z,12.70
2019-02-10T14:24:12.456Z,13.70
2019-02-10T14:26:41.772Z,13.43
2019-02-10T14:29:10.190Z,12.20
2019-02-10T14:31:38.817Z,13.67
2019-02-10T14:34:08.138Z,13.33
2019-02-10T14:36:37.462Z,13.73
2019-02-10T14:39:06.783Z,12.83
2019-02-10T14:41:36.176Z,13.90
2019-02-10T14:44:05.510Z,14.07
2019-02-10T14:46:34.037Z,14.50
2019-02-10T14:49:02.555Z,14.97
2019-02-10T14:51:31.072Z,13.80
2019-02-10T14:54:00.397Z,14.67
2019-02-10T14:56:29.749Z,14.50
2019-02-10T14:58:59.089Z,18.53
2019-02-10T15:01:28.413Z,19.77
2019-02-10T15:03:57.744Z,16.93
2019-02-10T15:06:27.071Z,18.77
2019-02-10T15:08:56.405Z,17.47
2019-02-10T15:11:25.019Z,17.83
2019-02-10T15:13:54.346Z,22.00
2019-02-10T15:16:23.667Z,30.00
2019-02-10T15:21:54.600Z,25.50
2019-02-10T15:24:23.924Z,26.27
2019-02-10T15:26:52.428Z,24.77
2019-02-10T15:29:21.758Z,23.27
2019-02-10T15:31:51.207Z,23.53
2019-02-10T15:34:20.529Z,23.77
2019-02-10T15:36:49.839Z,29.97
2019-02-10T15:39:19.174Z,28.87
2019-02-10T15:41:48.507Z,24.63
2019-02-10T15:44:17.821Z,29.73
2019-02-10T15:46:46.241Z,32.57
2019-02-10T15:49:15.570Z,35.27
2019-02-10T15:51:44.893Z,26.77
2019-02-10T15:54:14.209Z,22.50
2019-02-10T15:56:43.534Z,21.43
2019-02-10T15:59:12.845Z,50.57
2019-02-10T16:01:42.172Z,38.50
2019-02-10T16:04:11.494Z,31.23
2019-02-10T16:06:40.831Z,25.20
2019-02-10T16:09:10.153Z,24.00
2019-02-10T16:11:39.468Z,24.83
2019-02-10T16:14:08.792Z,22.10
2019-02-10T16:16:37.258Z,24.00
2019-02-10T16:22:12.334Z,26.17
2019-02-10T16:24:41.663Z,27.90
2019-02-10T16:27:10.974Z,25.70
2019-02-10T16:29:39.738Z,23.60
2019-02-10T16:32:08.357Z,24.00
2019-02-10T16:34:37.684Z,22.23
2019-02-10T16:37:07.037Z,30.67
2019-02-10T16:39:36.353Z,30.13
2019-02-10T16:42:05.672Z,30.13
2019-02-10T16:44:35.119Z,29.07
2019-02-10T16:47:04.473Z,31.93
2019-02-10T16:49:33.086Z,35.63
2019-02-10T16:52:02.932Z,54.10
2019-02-10T16:54:31.536Z,44.70
2019-02-10T16:57:00.051Z,36.80
2019-02-10T16:59:29.472Z,29.90
2019-02-10T17:01:58.797Z,37.10
2019-02-10T17:04:28.127Z,49.63
2019-02-10T17:06:57.442Z,50.73
2019-02-10T17:09:27.727Z,45.30
2019-02-10T17:12:15.977Z,39.50
2019-02-10T17:14:45.305Z,39.83
2019-02-10T17:17:14.621Z,37.53
2019-02-10T17:19:43.967Z,36.93
2019-02-10T17:22:13.423Z,38.07
2019-02-10T17:24:41.946Z,36.70
2019-02-10T17:27:11.378Z,34.97
2019-02-10T17:29:40.706Z,34.80
2019-02-10T17:32:10.060Z,34.23
2019-02-10T17:34:39.377Z,31.23
2019-02-10T17:37:08.711Z,31.90
2019-02-10T17:39:38.491Z,32.40
2019-02-10T17:42:07.817Z,30.80
2019-02-10T17:44:37.138Z,30.43
2019-02-10T17:47:06.459Z,34.10
2019-02-10T17:49:34.908Z,39.77
2019-02-10T17:52:03.524Z,66.00
2019-02-10T17:54:32.880Z,53.57
2019-02-10T17:57:02.202Z,42.13
2019-02-10T17:59:31.526Z,38.77
2019-02-10T18:02:00.888Z,34.63
2019-02-10T18:04:37.393Z,31.00
2019-02-10T18:07:19.400Z,30.77
2019-02-10T18:09:48.715Z,31.53
2019-02-10T18:12:18.030Z,33.10
2019-02-10T18:14:58.755Z,34.93
2019-02-10T18:17:46.739Z,37.53
2019-02-10T18:20:21.838Z,33.10
2019-02-10T18:23:10.620Z,33.93
2019-02-10T18:25:58.650Z,29.23
2019-02-10T18:28:47.489Z,29.23
2019-02-10T18:31:36.281Z,29.10
2019-02-10T18:34:25.073Z,27.70
2019-02-10T18:37:13.102Z,26.10
2019-02-10T18:39:49.506Z,26.83
2019-02-10T18:42:37.497Z,27.17
2019-02-10T18:45:25.592Z,26.00
2019-02-10T18:48:13.647Z,27.50
2019-02-10T18:51:02.498Z,27.83
2019-02-10T18:53:51.267Z,36.53
2019-02-10T18:56:39.263Z,31.00
2019-02-10T18:59:27.302Z,29.87
2019-02-10T19:02:03.066Z,28.97
2019-02-10T19:04:51.851Z,30.47
2019-02-10T19:07:39.833Z,40.50
2019-02-10T19:10:27.983Z,33.63
2019-02-10T19:13:15.966Z,28.87
2019-02-10T19:16:03.950Z,29.87
2019-02-10T19:18:52.048Z,24.73
2019-02-10T19:21:36.257Z,28.67
2019-02-10T19:24:25.041Z,30.37
2019-02-10T19:27:13.138Z,33.73
2019-02-10T19:30:00.994Z,35.77
2019-02-10T19:32:49.816Z,31.97
2019-02-10T19:35:37.807Z,28.27
2019-02-10T19:38:25.795Z,30.10
2019-02-10T19:41:13.781Z,27.50
2019-02-10T19:43:53.108Z,27.00
2019-02-10T19:46:41.092Z,25.83
2019-02-10T19:49:29.071Z,29.17
2019-02-10T19:52:05.198Z,26.77
2019-02-10T19:54:53.181Z,26.00
2019-02-10T19:57:41.266Z,30.60
2019-02-10T20:00:26.369Z,30.37
2019-02-10T20:03:15.213Z,26.33
2019-02-10T20:06:04.008Z,26.13
2019-02-10T20:08:52.200Z,26.13
2019-02-10T20:11:40.088Z,26.57
2019-02-10T20:14:28.072Z,27.57
2019-02-10T20:17:16.059Z,28.17
2019-02-10T20:20:04.044Z,29.23
2019-02-10T20:22:52.026Z,30.43
2019-02-10T20:25:40.857Z,33.83
2019-02-10T20:28:29.681Z,28.83
2019-02-10T20:31:18.473Z,30.17
2019-02-10T20:34:06.453Z,29.87
2019-02-10T20:36:54.383Z,29.50
2019-02-10T20:39:42.351Z,28.93
2019-02-10T20:42:30.344Z,29.57
2019-02-10T20:45:18.214Z,30.27
2019-02-10T20:48:06.190Z,29.33
2019-02-10T20:50:54.173Z,29.70
2019-02-10T20:53:42.148Z,28.90
2019-02-10T20:56:30.173Z,31.30
2019-02-10T20:59:08.114Z,36.40
2019-02-10T21:01:45.092Z,35.57
2019-02-10T21:04:33.067Z,34.30
2019-02-10T21:07:21.046Z,34.13
2019-02-10T21:10:09.842Z,32.60
2019-02-10T21:12:58.023Z,34.70
2019-02-10T21:15:45.955Z,32.07
2019-02-10T21:18:33.839Z,32.70
2019-02-10T21:21:21.818Z,30.50
2019-02-10T21:24:09.694Z,31.33
2019-02-10T21:26:57.676Z,30.57
2019-02-10T21:29:45.558Z,31.23
2019-02-10T21:32:23.164Z,32.33
2019-02-10T21:35:11.954Z,33.23
2019-02-10T21:37:59.936Z,32.53
2019-02-10T21:40:33.937Z,30.50
2019-02-10T21:43:21.935Z,34.17
2019-02-10T21:46:09.948Z,31.53
2019-02-10T21:48:57.978Z,32.87
2019-02-10T21:51:27.284Z,31.43
2019-02-10T21:53:56.594Z,33.83
2019-02-10T21:56:25.903Z,31.73
2019-02-10T21:58:55.211Z,34.77
2019-02-10T22:01:24.523Z,34.57
2019-02-10T22:03:53.867Z,34.93
2019-02-10T22:06:23.187Z,35.13
2019-02-10T22:08:51.722Z,36.30
2019-02-10T22:11:21.058Z,34.97
2019-02-10T22:13:49.575Z,37.13
2019-02-10T22:16:18.879Z,37.30
2019-02-10T22:18:48.228Z,36.87
2019-02-10T22:21:17.544Z,38.23
2019-02-10T22:23:46.963Z,38.00
2019-02-10T22:26:16.274Z,36.83
2019-02-10T22:28:45.583Z,36.67
2019-02-10T22:31:18.893Z,36.47
2019-02-10T22:34:03.326Z,36.90
2019-02-10T22:36:31.847Z,34.47
2019-02-10T22:39:01.174Z,34.97
2019-02-10T22:41:29.784Z,33.50
2019-02-10T22:43:59.082Z,33.63
2019-02-10T22:46:28.525Z,35.73
2019-02-10T22:48:57.819Z,35.60
2019-02-10T22:51:27.127Z,36.33
2019-02-10T22:53:56.431Z,34.70
2019-02-10T22:56:24.843Z,32.83
2019-02-10T22:58:53.743Z,35.57
2019-02-10T23:01:23.170Z,37.70
2019-02-10T23:03:52.470Z,34.37
2019-02-10T23:06:21.780Z,32.27
2019-02-10T23:08:51.082Z,30.20
2019-02-10T23:11:20.392Z,30.53
2019-02-10T23:13:49.715Z,27.73
2019-02-10T23:16:19.026Z,31.63
2019-02-10T23:18:48.332Z,33.57
2019-02-10T23:21:17.641Z,32.53
2019-02-10T23:23:46.960Z,32.00
2019-02-10T23:26:16.259Z,33.13
2019-02-10T23:28:44.801Z,33.40
2019-02-10T23:33:57.192Z,36.57
2019-02-10T23:36:25.698Z,36.33
2019-02-10T23:38:55.154Z,38.27
2019-02-10T23:41:24.458Z,39.30
2019-02-10T23:43:53.779Z,41.23
2019-02-10T23:46:23.098Z,44.37
2019-02-10T23:48:52.409Z,40.90
2019-02-10T23:51:21.730Z,39.40
2019-02-10T23:53:51.037Z,38.67
2019-02-10T23:56:20.653Z,39.37
2019-02-10T23:58:49.166Z,38.67
